Time;durP1;ratioP1;P1;durP2;ratioP2;P2;SDS_P1;SDS_P2;PMS_P1;PMS_P2;Temp;Humidity;BMP_temperature;BMP_pressure;BME280_temperature;BME280_humidity;BME280_pressure;Samples;Min_cycle;Max_cycle;Signal;HPM_P1;HPM_P2
2022/07/01 00:01:29;;;;;;;2.60;1.97;;;17.40;99.90;;;;;;4971801;28;20207;-77
2022/07/01 00:03:56;;;;;;;2.47;1.90;;;17.30;99.90;;;;;;4972751;28;20178;-77
2022/07/01 00:06:22;;;;;;;2.40;1.50;;;17.30;99.90;;;;;;4977876;28;20558;-76
2022/07/01 00:08:48;;;;;;;2.80;1.70;;;17.30;99.90;;;;;;4972634;28;20614;-77
2022/07/01 00:11:15;;;;;;;4.33;1.47;;;17.30;99.90;;;;;;4971411;28;20575;-77
2022/07/01 00:13:40;;;;;;;3.30;2.00;;;17.30;99.90;;;;;;4972476;28;20614;-76
2022/07/01 00:16:06;;;;;;;3.17;1.90;;;17.30;99.90;;;;;;4972708;28;20575;-77
2022/07/01 00:18:32;;;;;;;2.53;1.57;;;17.30;99.90;;;;;;4972365;28;20634;-77
2022/07/01 00:21:00;;;;;;;2.80;1.87;;;17.20;99.90;;;;;;4938466;28;20211;-77
2022/07/01 00:23:27;;;;;;;2.10;1.77;;;17.20;99.90;;;;;;4972434;28;20203;-77
2022/07/01 00:25:53;;;;;;;3.57;2.13;;;17.20;99.90;;;;;;4972370;28;20582;-77
2022/07/01 00:28:19;;;;;;;3.33;2.42;;;17.20;99.90;;;;;;4970958;28;21216;-77
2022/07/01 00:30:45;;;;;;;2.33;2.13;;;17.20;99.90;;;;;;4970311;28;20242;-77
2022/07/01 00:33:11;;;;;;;2.50;2.20;;;17.20;99.90;;;;;;4972183;28;20618;-77
2022/07/01 00:35:37;;;;;;;5.97;2.93;;;17.20;99.90;;;;;;4972351;28;20575;-77
2022/07/01 00:38:03;;;;;;;3.00;2.33;;;17.10;99.90;;;;;;4972440;28;20172;-77
2022/07/01 00:40:29;;;;;;;3.07;2.63;;;17.20;99.90;;;;;;4954182;28;20762;-77
2022/07/01 00:42:55;;;;;;;3.77;2.73;;;17.10;99.90;;;;;;4976104;28;20591;-77
2022/07/01 00:45:21;;;;;;;3.77;2.67;;;17.20;99.90;;;;;;4974159;28;20622;-77
2022/07/01 00:47:47;;;;;;;2.90;2.13;;;17.20;99.90;;;;;;4958524;28;20681;-77
2022/07/01 00:50:15;;;;;;;3.13;2.40;;;17.20;99.90;;;;;;4975481;28;20176;-77
2022/07/01 00:52:42;;;;;;;3.63;2.67;;;17.20;99.90;;;;;;4975285;28;20629;-77
2022/07/01 00:55:10;;;;;;;4.30;2.83;;;17.20;99.90;;;;;;4975506;28;20670;-77
2022/07/01 00:57:37;;;;;;;2.57;2.17;;;17.20;99.90;;;;;;4975585;28;20587;-77
2022/07/01 01:00:06;;;;;;;4.33;2.90;;;17.20;99.90;;;;;;4975327;28;20657;-77
2022/07/01 01:02:32;;;;;;;3.93;2.80;;;17.20;99.90;;;;;;4957715;28;20653;-77
2022/07/01 01:04:58;;;;;;;3.73;2.53;;;17.20;99.90;;;;;;4975520;28;20575;-77
2022/07/01 01:07:24;;;;;;;3.77;3.30;;;17.20;99.90;;;;;;4975573;28;20594;-77
2022/07/01 01:09:51;;;;;;;3.27;2.40;;;17.20;99.90;;;;;;4974879;28;20539;-77
2022/07/01 01:12:17;;;;;;;4.80;2.60;;;17.20;99.90;;;;;;4975001;28;20599;-77
2022/07/01 01:14:47;;;;;;;4.53;2.80;;;17.20;99.90;;;;;;4974209;28;20928;-77
2022/07/01 01:17:15;;;;;;;4.43;3.30;;;17.20;99.90;;;;;;4975467;28;21226;-77
2022/07/01 01:19:42;;;;;;;4.70;3.20;;;17.20;99.90;;;;;;4960073;28;20678;-77
2022/07/01 01:22:08;;;;;;;4.10;3.70;;;17.20;99.90;;;;;;4977533;28;20599;-77
2022/07/01 01:24:38;;;;;;;4.07;3.77;;;17.30;99.90;;;;;;4957699;28;20582;-76
2022/07/01 01:27:07;;;;;;;4.30;3.90;;;17.20;99.90;;;;;;4975679;28;20575;-76
2022/07/01 01:29:35;;;;;;;4.67;3.30;;;17.30;99.90;;;;;;4974924;28;21115;-76
2022/07/01 01:32:01;;;;;;;5.60;3.13;;;17.30;99.90;;;;;;4974489;28;20615;-75
2022/07/01 01:34:27;;;;;;;5.03;3.70;;;17.30;99.90;;;;;;4957771;28;21005;-76
2022/07/01 01:36:53;;;;;;;7.30;3.60;;;17.30;99.90;;;;;;4974989;28;20658;-75
2022/07/01 01:39:19;;;;;;;4.43;3.90;;;17.30;99.90;;;;;;4974706;28;20584;-76
2022/07/01 01:41:46;;;;;;;5.40;4.17;;;17.30;99.90;;;;;;4974201;28;20637;-75
2022/07/01 01:44:12;;;;;;;4.23;3.83;;;17.30;99.90;;;;;;4975002;28;20666;-76
2022/07/01 01:46:38;;;;;;;4.23;3.30;;;17.30;99.90;;;;;;4974778;28;20571;-75
2022/07/01 01:49:05;;;;;;;4.77;3.73;;;17.30;99.90;;;;;;4973656;28;20577;-76
2022/07/01 01:51:32;;;;;;;7.13;3.83;;;17.30;99.90;;;;;;4973808;28;20210;-76
2022/07/01 01:53:58;;;;;;;5.57;3.07;;;17.30;99.90;;;;;;4957429;28;20583;-76
2022/07/01 01:56:25;;;;;;;3.33;2.77;;;17.30;99.90;;;;;;4958524;28;20589;-76
2022/07/01 01:58:50;;;;;;;4.03;3.20;;;17.30;99.90;;;;;;4976879;28;21138;-76
2022/07/01 02:01:18;;;;;;;5.93;4.53;;;17.30;99.90;;;;;;4973667;28;20797;-76
2022/07/01 02:03:46;;;;;;;4.53;2.77;;;17.30;99.90;;;;;;4974550;28;20168;-76
2022/07/01 02:06:13;;;;;;;3.37;2.50;;;17.30;99.90;;;;;;4957062;28;20675;-76
2022/07/01 02:08:39;;;;;;;5.70;2.63;;;17.30;99.90;;;;;;4974429;28;20638;-76
2022/07/01 02:11:06;;;;;;;3.50;2.40;;;17.30;99.90;;;;;;4973567;28;20563;-76
2022/07/01 02:13:32;;;;;;;4.63;2.67;;;17.30;99.90;;;;;;4974352;28;20979;-76
2022/07/01 02:15:59;;;;;;;3.07;2.50;;;17.30;99.90;;;;;;4974311;28;20615;-76
2022/07/01 02:18:25;;;;;;;2.30;2.00;;;17.30;99.90;;;;;;4974309;28;20582;-75
2022/07/01 02:20:51;;;;;;;2.20;1.50;;;17.20;99.90;;;;;;4972154;28;20627;-76
2022/07/01 02:23:17;;;;;;;2.43;2.13;;;17.20;99.90;;;;;;4974079;28;20191;-75
2022/07/01 02:25:43;;;;;;;3.10;1.90;;;17.20;99.90;;;;;;4974258;28;20570;-76
2022/07/01 02:28:09;;;;;;;5.67;1.70;;;17.20;99.90;;;;;;4974063;28;20568;-75
2022/07/01 02:30:36;;;;;;;4.70;1.97;;;17.20;99.90;;;;;;4973372;28;20579;-75
2022/07/01 02:33:03;;;;;;;2.00;1.23;;;17.20;99.90;;;;;;4972845;28;20617;-75
2022/07/01 02:35:29;;;;;;;2.73;1.60;;;17.20;99.90;;;;;;4945212;28;20590;-76
2022/07/01 02:37:55;;;;;;;1.70;1.30;;;17.20;99.90;;;;;;4973974;28;20575;-76
2022/07/01 02:40:21;;;;;;;2.10;1.07;;;17.20;99.90;;;;;;4973705;28;20619;-76
2022/07/01 02:42:46;;;;;;;2.80;1.80;;;17.20;99.90;;;;;;4956121;28;21368;-76
2022/07/01 02:45:12;;;;;;;1.87;1.20;;;17.10;99.90;;;;;;4973924;28;20683;-76
2022/07/01 02:47:40;;;;;;;3.70;1.33;;;17.20;99.90;;;;;;4973770;28;20203;-76
2022/07/01 02:50:08;;;;;;;1.90;1.30;;;17.20;99.90;;;;;;4973321;28;20567;-76
2022/07/01 02:52:35;;;;;;;1.63;0.90;;;17.10;99.90;;;;;;4955554;28;20677;-75
2022/07/01 02:55:06;;;;;;;2.87;1.30;;;17.20;99.90;;;;;;4972427;28;20575;-76
2022/07/01 02:57:32;;;;;;;2.53;1.37;;;17.20;99.90;;;;;;4956353;28;20600;-76
2022/07/01 02:59:58;;;;;;;3.20;1.17;;;17.20;99.90;;;;;;4955753;28;20734;-76
2022/07/01 03:02:24;;;;;;;2.00;1.20;;;17.20;99.90;;;;;;4972796;28;20607;-76
2022/07/01 03:04:52;;;;;;;3.70;1.30;;;17.20;99.90;;;;;;4971793;28;20579;-76
2022/07/01 03:07:18;;;;;;;5.77;1.40;;;17.20;99.90;;;;;;4956200;28;20567;-76
2022/07/01 03:09:44;;;;;;;2.40;1.20;;;17.20;99.90;;;;;;4973454;28;20594;-75
2022/07/01 03:12:34;;;;;;;1.80;1.10;;;17.30;99.90;;;;;;4978111;28;20646;-76
2022/07/01 03:15:18;;;;;;;2.17;1.00;;;17.30;99.90;;;;;;4973436;28;20578;-75
2022/07/01 03:17:46;;;;;;;3.57;0.90;;;17.30;99.90;;;;;;4973797;28;20938;-75
2022/07/01 03:20:15;;;;;;;1.63;0.80;;;17.30;99.90;;;;;;4955291;28;20793;-74
2022/07/01 03:22:44;;;;;;;1.50;0.90;;;17.30;99.90;;;;;;4973866;28;20606;-75
2022/07/01 03:25:10;;;;;;;1.50;0.90;;;17.40;99.90;;;;;;4956093;28;20579;-74
2022/07/01 03:27:36;;;;;;;2.50;0.80;;;17.40;99.90;;;;;;4955668;28;20578;-75
2022/07/01 03:30:03;;;;;;;1.83;0.90;;;17.40;99.90;;;;;;4955532;28;20579;-75
2022/07/01 03:32:29;;;;;;;1.60;0.87;;;17.40;99.90;;;;;;4972217;28;20618;-74
2022/07/01 03:34:55;;;;;;;2.17;1.00;;;17.40;99.90;;;;;;4955483;28;21459;-75
2022/07/01 03:37:22;;;;;;;1.87;0.80;;;17.40;99.90;;;;;;4972822;28;20171;-74
2022/07/01 03:39:49;;;;;;;1.43;0.90;;;17.40;99.90;;;;;;4939310;28;20623;-74
2022/07/01 03:42:15;;;;;;;1.60;0.83;;;17.40;99.90;;;;;;4954792;28;20598;-74
2022/07/01 03:44:41;;;;;;;1.73;0.77;;;17.50;99.90;;;;;;4955731;28;20910;-74
2022/07/01 03:47:07;;;;;;;2.30;0.90;;;17.50;99.90;;;;;;4978301;28;20990;-74
2022/07/01 03:49:34;;;;;;;4.43;0.90;;;17.50;99.90;;;;;;4961070;28;20709;-74
2022/07/01 03:52:00;;;;;;;2.00;0.80;;;17.50;99.90;;;;;;4991453;28;20598;-75
2022/07/01 03:54:29;;;;;;;2.00;1.00;;;17.50;99.90;;;;;;4992042;28;20562;-75
2022/07/01 03:57:07;;;;;;;2.70;1.07;;;17.50;99.90;;;;;;4942715;28;20601;-74
2022/07/01 03:59:36;;;;;;;6.33;1.00;;;17.50;99.90;;;;;;4974663;28;20636;-74
2022/07/01 04:02:03;;;;;;;1.80;0.83;;;17.50;99.90;;;;;;4974042;28;20643;-74
2022/07/01 04:04:29;;;;;;;2.13;0.87;;;17.50;99.90;;;;;;4992037;28;20571;-74
2022/07/01 04:06:58;;;;;;;2.73;0.73;;;17.50;99.90;;;;;;4974733;28;20609;-74
2022/07/01 04:09:24;;;;;;;1.53;0.90;;;17.50;99.90;;;;;;4974634;28;20566;-74
2022/07/01 04:11:51;;;;;;;2.53;1.00;;;17.60;99.90;;;;;;4991106;28;21138;-75
2022/07/01 04:14:17;;;;;;;3.33;0.83;;;17.50;99.90;;;;;;4991976;28;20606;-75
2022/07/01 04:16:44;;;;;;;1.60;0.87;;;17.50;99.90;;;;;;4991783;28;20570;-75
2022/07/01 04:19:11;;;;;;;2.17;0.80;;;17.50;99.90;;;;;;4958208;28;20609;-75
2022/07/01 04:24:24;;;;;;;1.83;0.90;;;17.50;99.90;;;;;;5000890;28;20559;-74
2022/07/01 04:26:50;;;;;;;6.20;1.17;;;17.50;99.90;;;;;;4995814;28;20561;-74
2022/07/01 04:29:17;;;;;;;1.40;0.97;;;17.50;99.90;;;;;;4978232;28;20669;-74
2022/07/01 04:31:42;;;;;;;1.50;0.97;;;17.60;99.90;;;;;;4994576;28;20598;-74
2022/07/01 04:34:09;;;;;;;1.93;0.90;;;17.60;99.90;;;;;;4995672;28;20588;-75
2022/07/01 04:36:35;;;;;;;2.63;0.80;;;17.60;99.90;;;;;;4995679;28;20230;-75
2022/07/01 04:39:03;;;;;;;2.67;0.80;;;17.60;99.90;;;;;;4995550;28;20570;-75
2022/07/01 04:44:13;;;;;;;5.47;1.67;;;17.70;99.90;;;;;;4995236;28;20571;-75
2022/07/01 04:46:39;;;;;;;2.90;0.80;;;17.70;99.90;;;;;;4995244;28;20568;-74
2022/07/01 04:49:05;;;;;;;3.13;0.80;;;17.70;99.90;;;;;;4977976;28;20163;-75
2022/07/01 04:51:34;;;;;;;2.47;0.93;;;17.70;99.90;;;;;;4994436;28;20601;-75
2022/07/01 04:54:03;;;;;;;2.13;0.70;;;17.80;99.90;;;;;;4996849;28;20604;-76
2022/07/01 04:56:29;;;;;;;1.50;0.70;;;17.70;99.90;;;;;;4977955;28;21106;-76
2022/07/01 04:58:55;;;;;;;7.93;0.70;;;17.80;99.90;;;;;;4995161;28;20621;-75
2022/07/01 05:01:22;;;;;;;3.50;0.80;;;17.80;99.90;;;;;;4981425;28;20230;-76
2022/07/01 05:03:48;;;;;;;2.53;1.00;;;17.80;99.90;;;;;;4992977;28;20625;-75
2022/07/01 05:06:14;;;;;;;2.53;0.80;;;17.80;99.90;;;;;;4994395;28;20597;-76
2022/07/01 05:08:40;;;;;;;2.40;0.80;;;17.80;99.90;;;;;;4997530;28;20573;-75
2022/07/01 05:11:06;;;;;;;2.30;1.00;;;17.80;99.90;;;;;;5013768;28;20572;-76
2022/07/01 05:13:33;;;;;;;4.17;1.30;;;17.90;99.90;;;;;;4980942;28;20625;-76
2022/07/01 05:15:59;;;;;;;3.83;0.90;;;17.80;99.90;;;;;;4993084;28;20597;-76
2022/07/01 05:23:54;;;;;;;3.60;1.10;;;17.90;99.90;;;;;;4997383;28;20589;-76
2022/07/01 05:26:20;;;;;;;4.53;0.87;;;18.00;99.90;;;;;;4994362;28;20578;-77
2022/07/01 05:28:46;;;;;;;2.30;0.90;;;18.00;99.90;;;;;;4994436;28;20171;-76
2022/07/01 05:31:12;;;;;;;1.63;0.80;;;18.00;99.90;;;;;;4975636;28;20680;-76
2022/07/01 05:33:39;;;;;;;1.70;1.10;;;18.10;99.90;;;;;;4992913;28;20981;-76
2022/07/01 05:36:05;;;;;;;3.40;0.80;;;18.20;99.90;;;;;;4993331;28;20570;-75
2022/07/01 05:38:31;;;;;;;5.80;0.80;;;18.30;99.90;;;;;;4998459;28;20562;-76
2022/07/01 05:40:57;;;;;;;2.10;0.87;;;18.40;99.90;;;;;;4993306;28;20605;-74
2022/07/01 05:43:23;;;;;;;3.40;0.90;;;18.40;99.90;;;;;;4994247;28;20594;-75
2022/07/01 05:45:48;;;;;;;1.70;1.00;;;18.50;99.90;;;;;;4994070;28;20887;-75
2022/07/01 05:48:14;;;;;;;2.53;0.90;;;18.50;99.90;;;;;;4993157;28;20163;-75
2022/07/01 05:50:40;;;;;;;2.50;0.90;;;18.60;99.90;;;;;;4996444;28;20189;-83
2022/07/01 05:53:06;;;;;;;2.33;0.80;;;18.70;99.90;;;;;;4977175;28;20215;-82
2022/07/01 05:55:32;;;;;;;2.80;0.90;;;18.80;99.90;;;;;;4961103;28;20942;-82
2022/07/01 05:57:58;;;;;;;3.30;0.80;;;18.80;99.90;;;;;;4961044;28;20649;-82
2022/07/01 06:00:23;;;;;;;3.40;0.80;;;18.90;99.90;;;;;;4994111;28;20686;-82
2022/07/01 06:02:49;;;;;;;2.80;0.80;;;19.00;99.90;;;;;;4976506;28;20195;-82
2022/07/01 06:05:15;;;;;;;2.90;1.00;;;19.10;99.90;;;;;;4977159;28;20222;-82
2022/07/01 06:07:41;;;;;;;2.47;0.77;;;19.20;99.90;;;;;;4996199;28;20167;-83
2022/07/01 06:10:09;;;;;;;3.03;0.83;;;19.30;99.90;;;;;;4994828;28;20290;-76
2022/07/01 06:12:50;;;;;;;2.33;0.90;;;19.50;99.90;;;;;;4961805;28;21396;-76
2022/07/01 06:15:15;;;;;;;1.90;0.70;;;19.60;99.90;;;;;;4979917;28;20587;-75
2022/07/01 06:17:42;;;;;;;1.67;0.83;;;19.80;99.90;;;;;;4993559;28;20539;-76
2022/07/01 06:20:08;;;;;;;3.70;1.10;;;19.90;99.90;;;;;;4976016;28;20207;-77
2022/07/01 06:22:35;;;;;;;2.40;0.70;;;20.00;99.90;;;;;;4975234;28;21018;-77
2022/07/01 06:25:01;;;;;;;2.33;0.87;;;20.20;99.90;;;;;;4993650;28;20578;-76
2022/07/01 06:27:27;;;;;;;3.83;1.20;;;20.30;99.90;;;;;;4975889;28;20985;-76
2022/07/01 06:29:53;;;;;;;1.90;0.73;;;20.50;99.90;;;;;;4993015;28;20613;-76
2022/07/01 06:32:19;;;;;;;5.67;0.93;;;20.80;99.90;;;;;;4993304;28;20638;-76
2022/07/01 06:34:45;;;;;;;3.40;0.90;;;21.30;99.90;;;;;;4968508;28;20227;-76
2022/07/01 06:37:11;;;;;;;1.63;0.87;;;21.60;99.90;;;;;;4992088;28;20582;-76
2022/07/01 06:39:37;;;;;;;3.50;0.70;;;21.90;99.90;;;;;;4983449;28;20590;-76
2022/07/01 06:42:03;;;;;;;2.70;1.00;;;22.10;99.90;;;;;;4974909;28;20598;-76
2022/07/01 06:44:29;;;;;;;2.03;0.70;;;22.60;99.90;;;;;;4992944;28;20586;-76
2022/07/01 06:46:55;;;;;;;4.27;0.70;;;23.10;99.90;;;;;;4975559;28;20738;-75
2022/07/01 06:49:21;;;;;;;2.67;0.70;;;23.30;99.90;;;;;;4993171;28;20178;-76
2022/07/01 06:51:46;;;;;;;2.83;0.73;;;23.50;99.90;;;;;;4975605;28;20232;-75
2022/07/01 06:54:12;;;;;;;1.50;0.60;;;23.60;99.90;;;;;;5013568;28;20688;-75
2022/07/01 06:56:38;;;;;;;2.80;0.70;;;23.70;99.90;;;;;;5011941;28;20185;-75
2022/07/01 06:59:04;;;;;;;1.87;0.80;;;23.70;99.90;;;;;;5012595;28;20178;-75
2022/07/01 07:01:29;;;;;;;1.80;0.60;;;23.60;99.90;;;;;;5011627;28;20325;-75
2022/07/01 07:03:56;;;;;;;1.90;0.70;;;23.60;99.90;;;;;;4994877;28;20546;-75
2022/07/01 07:06:22;;;;;;;3.47;0.70;;;23.50;99.90;;;;;;5012334;28;20573;-75
2022/07/01 07:08:47;;;;;;;6.93;2.27;;;23.40;99.90;;;;;;5012542;28;20254;-76
2022/07/01 07:11:14;;;;;;;2.00;0.87;;;23.20;99.90;;;;;;4993527;28;20593;-75
2022/07/01 07:13:41;;;;;;;2.10;0.97;;;23.10;99.90;;;;;;4994804;28;20272;-76
2022/07/01 07:16:07;;;;;;;2.67;0.90;;;22.90;99.90;;;;;;4978492;28;20614;-75
2022/07/01 07:18:34;;;;;;;4.70;0.80;;;22.70;99.90;;;;;;5011817;28;20660;-75
2022/07/01 07:21:00;;;;;;;3.47;0.97;;;22.50;99.90;;;;;;5011355;28;20660;-75
2022/07/01 07:23:26;;;;;;;1.97;1.10;;;22.40;99.90;;;;;;4994756;28;20951;-76
2022/07/01 07:25:52;;;;;;;1.67;0.80;;;22.30;99.90;;;;;;5010655;28;20652;-76
2022/07/01 07:28:18;;;;;;;1.80;1.13;;;22.20;99.90;;;;;;5021308;23;20210;-74
2022/07/01 07:30:44;;;;;;;3.20;0.90;;;22.20;99.90;;;;;;5011118;28;20236;-74
2022/07/01 07:33:10;;;;;;;3.77;0.80;;;22.20;99.90;;;;;;5011812;28;20213;-75
2022/07/01 07:35:35;;;;;;;2.57;1.10;;;22.20;99.90;;;;;;5010555;28;20190;-74
2022/07/01 07:38:01;;;;;;;2.63;0.70;;;22.30;99.90;;;;;;5010363;28;21240;-75
2022/07/01 07:40:27;;;;;;;1.87;0.70;;;22.40;99.90;;;;;;5012909;28;20205;-75
2022/07/01 07:42:53;;;;;;;2.23;0.80;;;22.50;99.90;;;;;;5011811;28;20170;-75
2022/07/01 07:45:19;;;;;;;2.70;0.70;;;22.60;99.90;;;;;;5010340;28;20170;-75
2022/07/01 07:47:48;;;;;;;5.77;1.00;;;22.70;99.90;;;;;;5011602;28;20653;-75
2022/07/01 07:50:15;;;;;;;1.70;0.87;;;22.80;99.90;;;;;;5003483;28;20580;-75
2022/07/01 07:52:41;;;;;;;1.70;0.77;;;23.30;99.90;;;;;;5009590;28;20569;-75
2022/07/01 07:55:09;;;;;;;3.47;1.00;;;24.00;99.90;;;;;;5009172;28;20684;-75
2022/07/01 07:57:39;;;;;;;3.87;1.33;;;24.50;99.90;;;;;;4993741;28;20581;-75
2022/07/01 08:00:08;;;;;;;2.03;0.97;;;24.90;99.90;;;;;;5010357;28;20783;-75
2022/07/01 08:02:40;;;;;;;2.03;1.00;;;25.60;99.90;;;;;;5009743;28;20587;-73
2022/07/01 08:05:08;;;;;;;2.00;0.77;;;26.00;99.90;;;;;;5007628;28;21321;-75
2022/07/01 08:07:41;;;;;;;2.37;1.03;;;26.20;99.90;;;;;;5009230;28;20601;-75
2022/07/01 08:10:10;;;;;;;1.80;1.10;;;26.30;99.90;;;;;;5008667;28;20601;-74
2022/07/01 08:12:36;;;;;;;4.03;1.20;;;26.30;99.90;;;;;;5003887;28;20609;-75
2022/07/01 08:15:03;;;;;;;2.37;0.90;;;26.40;99.90;;;;;;5007330;28;20605;-74
2022/07/01 08:17:29;;;;;;;2.37;1.30;;;26.50;99.90;;;;;;5012612;28;20597;-74
2022/07/01 08:19:55;;;;;;;2.70;1.00;;;26.60;99.90;;;;;;5010037;28;20748;-74
2022/07/01 08:22:21;;;;;;;3.50;1.60;;;26.50;99.90;;;;;;5009248;28;20676;-75
2022/07/01 08:24:47;;;;;;;2.40;0.93;;;26.50;99.90;;;;;;5017228;28;20213;-75
2022/07/01 08:27:12;;;;;;;2.47;1.10;;;26.50;99.90;;;;;;5009765;28;20182;-75
2022/07/01 08:29:39;;;;;;;3.20;1.70;;;26.50;99.90;;;;;;5009825;28;20206;-74
2022/07/01 08:32:06;;;;;;;4.00;1.40;;;26.40;99.90;;;;;;5016370;28;20227;-75
2022/07/01 08:34:32;;;;;;;2.40;1.10;;;26.30;99.90;;;;;;5004505;28;20649;-75
2022/07/01 08:36:57;;;;;;;2.53;1.33;;;26.30;99.90;;;;;;5006994;28;20985;-75
2022/07/01 08:39:23;;;;;;;2.10;0.80;;;26.30;99.90;;;;;;5010448;28;20205;-75
2022/07/01 08:41:49;;;;;;;2.83;0.80;;;26.40;99.90;;;;;;5009096;28;20237;-74
2022/07/01 08:44:15;;;;;;;3.43;0.80;;;26.60;99.90;;;;;;5010682;28;20179;-74
2022/07/01 08:46:41;;;;;;;4.30;0.67;;;27.00;99.90;;;;;;5009397;28;20607;-74
2022/07/01 08:49:07;;;;;;;1.70;0.70;;;27.30;99.90;;;;;;5008914;28;20715;-75
2022/07/01 08:51:33;;;;;;;3.60;0.90;;;27.40;99.90;;;;;;5010171;28;20635;-75
2022/07/01 08:53:59;;;;;;;1.63;0.80;;;27.50;99.90;;;;;;5012665;28;20167;-75
2022/07/01 08:56:45;;;;;;;4.00;1.00;;;27.40;99.90;;;;;;5010285;28;20619;-75
2022/07/01 08:59:23;;;;;;;3.37;1.90;;;27.40;99.90;;;;;;5010770;28;20643;-74
2022/07/01 09:02:00;;;;;;;2.13;0.93;;;27.30;99.90;;;;;;5009034;28;20617;-74
2022/07/01 09:04:27;;;;;;;5.27;0.90;;;27.20;99.90;;;;;;5010898;28;20557;-74
2022/07/01 09:07:01;;;;;;;2.47;1.00;;;27.30;99.90;;;;;;5008090;28;20634;-74
2022/07/01 09:09:27;;;;;;;1.80;0.80;;;27.40;99.90;;;;;;5013240;28;20612;-74
2022/07/01 09:11:57;;;;;;;2.93;1.13;;;27.50;99.90;;;;;;5013784;28;20566;-74
2022/07/01 09:14:28;;;;;;;1.80;0.80;;;27.60;99.20;;;;;;5014334;28;20261;-75
2022/07/01 09:16:58;;;;;;;1.40;0.70;;;27.70;98.70;;;;;;5013261;28;20573;-74
2022/07/01 09:19:25;;;;;;;1.40;0.80;;;27.70;97.80;;;;;;5014271;28;20601;-74
2022/07/01 09:21:53;;;;;;;1.73;0.73;;;27.70;97.70;;;;;;5012025;28;20993;-74
2022/07/01 09:24:30;;;;;;;2.60;0.70;;;27.50;97.00;;;;;;5014291;28;21076;-74
2022/07/01 09:27:11;;;;;;;1.80;0.90;;;27.40;96.30;;;;;;5014350;28;20703;-74
2022/07/01 09:29:39;;;;;;;1.50;0.93;;;27.30;96.50;;;;;;5012550;28;20690;-74
2022/07/01 09:32:08;;;;;;;2.03;0.90;;;27.40;97.10;;;;;;5015618;28;20573;-74
2022/07/01 09:34:45;;;;;;;2.30;0.70;;;27.60;96.90;;;;;;5014197;28;21121;-75
2022/07/01 09:37:16;;;;;;;3.10;0.90;;;27.70;96.10;;;;;;5013897;28;20664;-74
2022/07/01 09:39:56;;;;;;;2.20;0.90;;;27.80;96.90;;;;;;5013828;28;20996;-74
2022/07/01 09:42:23;;;;;;;4.07;0.80;;;28.10;96.80;;;;;;5013635;28;20580;-74
2022/07/01 09:44:58;;;;;;;2.20;0.80;;;28.40;96.70;;;;;;5014014;28;20945;-74
2022/07/01 09:47:26;;;;;;;1.77;0.70;;;28.50;95.20;;;;;;5013883;28;20561;-75
2022/07/01 09:49:52;;;;;;;2.10;1.07;;;28.70;95.20;;;;;;5013386;28;20958;-74
2022/07/01 09:52:19;;;;;;;2.07;0.83;;;28.90;95.20;;;;;;5012147;28;20927;-74
2022/07/01 09:54:49;;;;;;;2.17;1.00;;;29.10;94.80;;;;;;5013696;28;20583;-74
2022/07/01 09:57:19;;;;;;;2.43;0.80;;;29.20;93.20;;;;;;5013550;28;20664;-74
2022/07/01 09:59:45;;;;;;;2.50;1.20;;;29.30;93.40;;;;;;5013122;28;21062;-73
2022/07/01 10:02:12;;;;;;;2.17;1.10;;;29.80;93.80;;;;;;5013009;28;20598;-73
2022/07/01 10:04:42;;;;;;;2.37;0.80;;;30.30;93.40;;;;;;5013436;28;20162;-74
2022/07/01 10:07:58;;;;;;;2.20;0.80;;;30.60;91.50;;;;;;5012667;28;20568;-73
2022/07/01 10:10:32;;;;;;;1.80;1.00;;;30.80;88.00;;;;;;4991127;28;20601;-74
2022/07/01 10:13:00;;;;;;;1.87;0.80;;;30.80;88.20;;;;;;4992761;28;20592;-74
2022/07/01 10:15:27;;;;;;;2.13;0.80;;;31.00;88.70;;;;;;5013735;28;20574;-74
2022/07/01 10:17:53;;;;;;;3.20;1.10;;;31.60;89.80;;;;;;5012676;28;20671;-74
2022/07/01 10:20:26;;;;;;;2.90;1.10;;;32.30;90.20;;;;;;5012346;28;20757;-74
2022/07/01 10:23:01;;;;;;;4.10;1.00;;;33.00;88.40;;;;;;5012002;28;20207;-74
2022/07/01 10:25:44;;;;;;;2.27;1.00;;;33.70;85.50;;;;;;5011791;28;20579;-75
2022/07/01 10:28:29;;;;;;;1.87;0.90;;;34.50;84.60;;;;;;5011486;28;20990;-74
2022/07/01 10:31:04;;;;;;;2.70;1.10;;;35.20;80.60;;;;;;4994664;28;20580;-74
2022/07/01 10:33:45;;;;;;;2.17;0.93;;;35.90;75.70;;;;;;5011799;28;20649;-74
2022/07/01 10:36:12;;;;;;;1.60;0.70;;;36.20;73.20;;;;;;5011667;28;21152;-74
2022/07/01 10:39:13;;;;;;;2.03;0.90;;;36.50;71.50;;;;;;5012870;28;20597;-74
2022/07/01 10:41:58;;;;;;;2.97;0.80;;;36.80;65.80;;;;;;5010909;28;20624;-74
2022/07/01 10:44:27;;;;;;;1.87;0.70;;;36.70;63.90;;;;;;5015203;28;20934;-74
2022/07/01 10:46:57;;;;;;;3.20;1.00;;;36.40;62.80;;;;;;5012997;28;20608;-74
2022/07/01 10:49:35;;;;;;;3.60;0.90;;;36.10;60.50;;;;;;5011197;28;20603;-75
2022/07/01 10:52:08;;;;;;;2.37;1.27;;;35.70;58.60;;;;;;5012184;28;20566;-74
2022/07/01 10:54:37;;;;;;;2.10;0.80;;;35.00;57.30;;;;;;5011361;28;20618;-74
2022/07/01 10:57:22;;;;;;;3.43;1.10;;;34.40;57.30;;;;;;5012544;28;20567;-75
2022/07/01 10:59:53;;;;;;;4.03;0.90;;;33.80;57.70;;;;;;5010990;28;20645;-74
2022/07/01 11:02:22;;;;;;;4.40;0.90;;;33.30;58.10;;;;;;5012130;28;21196;-75
2022/07/01 11:04:50;;;;;;;2.30;1.03;;;33.00;58.30;;;;;;5012460;28;20573;-74
2022/07/01 11:07:16;;;;;;;1.90;1.30;;;32.80;59.30;;;;;;5012504;28;20574;-75
2022/07/01 11:09:42;;;;;;;1.80;0.90;;;32.60;59.30;;;;;;5010818;28;20597;-75
2022/07/01 11:12:08;;;;;;;3.53;1.03;;;32.40;58.80;;;;;;5010586;28;20604;-74
2022/07/01 11:14:35;;;;;;;1.63;0.80;;;32.30;59.70;;;;;;5012515;28;20181;-75
2022/07/01 11:17:02;;;;;;;1.50;0.73;;;32.40;60.60;;;;;;5011019;28;20586;-74
2022/07/01 11:19:28;;;;;;;1.47;0.77;;;32.50;59.90;;;;;;5010887;28;21168;-73
2022/07/01 11:21:54;;;;;;;1.60;1.10;;;32.40;59.30;;;;;;4997413;28;20747;-73
2022/07/01 11:24:21;;;;;;;1.70;0.80;;;32.20;59.30;;;;;;5012293;28;20175;-74
2022/07/01 11:26:47;;;;;;;2.20;0.83;;;32.20;60.30;;;;;;5010925;28;20973;-74
2022/07/01 11:29:14;;;;;;;1.60;0.90;;;32.30;60.80;;;;;;4994219;28;20658;-74
2022/07/01 11:31:40;;;;;;;1.57;1.00;;;32.40;59.50;;;;;;5010453;28;20570;-74
2022/07/01 11:34:08;;;;;;;2.00;0.80;;;32.40;58.80;;;;;;5012624;28;20632;-74
2022/07/01 11:39:22;;;;;;;3.63;1.53;;;32.10;56.80;;;;;;5012027;28;20625;-74
2022/07/01 11:41:52;;;;;;;2.60;1.80;;;31.80;57.00;;;;;;5011669;28;20621;-74
2022/07/01 11:44:36;;;;;;;2.63;1.50;;;31.60;56.80;;;;;;5010834;28;20620;-74
2022/07/01 11:47:04;;;;;;;2.87;1.10;;;31.40;56.60;;;;;;5010460;28;20919;-74
2022/07/01 11:49:30;;;;;;;2.80;0.70;;;31.20;57.00;;;;;;5010622;28;20703;-75
2022/07/01 11:51:58;;;;;;;2.90;0.80;;;31.10;57.30;;;;;;5011193;28;20673;-74
2022/07/01 11:54:24;;;;;;;2.63;0.83;;;31.00;56.80;;;;;;5011836;28;20248;-74
2022/07/01 11:56:50;;;;;;;2.30;0.80;;;30.80;56.60;;;;;;5010566;28;20929;-74
2022/07/01 11:59:17;;;;;;;1.90;0.80;;;30.60;56.60;;;;;;5015768;28;20601;-75
2022/07/01 12:01:52;;;;;;;1.63;0.70;;;30.40;56.20;;;;;;5010707;28;20684;-74
2022/07/01 12:04:18;;;;;;;2.03;1.00;;;30.10;56.00;;;;;;5011403;28;20561;-74
2022/07/01 12:06:44;;;;;;;2.63;0.90;;;29.90;55.60;;;;;;5011524;28;20972;-74
2022/07/01 12:09:18;;;;;;;2.20;1.17;;;29.80;55.90;;;;;;4993966;28;20194;-74
2022/07/01 12:11:48;;;;;;;3.97;1.20;;;29.80;55.70;;;;;;5009543;28;20585;-74
2022/07/01 12:14:32;;;;;;;2.83;1.80;;;29.80;55.60;;;;;;5010560;28;20581;-74
2022/07/01 12:17:01;;;;;;;1.97;1.00;;;29.80;55.30;;;;;;5010253;28;20580;-74
2022/07/01 12:19:48;;;;;;;4.17;1.70;;;29.70;55.00;;;;;;5011514;28;20615;-74
2022/07/01 12:22:15;;;;;;;4.83;1.70;;;29.50;53.90;;;;;;5009735;28;20636;-74
2022/07/01 12:24:42;;;;;;;2.20;1.00;;;29.30;54.60;;;;;;5011596;28;20551;-74
2022/07/01 12:27:09;;;;;;;2.10;1.10;;;29.10;54.30;;;;;;5010268;28;20588;-75
2022/07/01 12:29:48;;;;;;;1.70;0.90;;;28.90;53.50;;;;;;5011132;28;21024;-74
2022/07/01 12:32:26;;;;;;;2.50;1.30;;;28.70;54.10;;;;;;5011016;28;20571;-74
2022/07/01 12:35:00;;;;;;;1.93;1.07;;;28.80;55.20;;;;;;5014916;28;20624;-74
2022/07/01 12:37:32;;;;;;;1.90;0.60;;;28.90;55.90;;;;;;5011701;28;20925;-74
2022/07/01 12:39:59;;;;;;;2.23;1.00;;;29.10;56.40;;;;;;5009666;28;20581;-74
2022/07/01 12:42:42;;;;;;;2.73;0.77;;;29.30;56.90;;;;;;5013106;28;20569;-74
2022/07/01 12:45:11;;;;;;;2.00;0.90;;;29.40;54.90;;;;;;5014982;28;20565;-74
2022/07/01 12:47:47;;;;;;;2.27;0.60;;;29.40;56.20;;;;;;5014892;28;20569;-74
2022/07/01 12:50:32;;;;;;;2.80;0.90;;;29.40;55.00;;;;;;5013527;28;20584;-74
2022/07/01 12:53:02;;;;;;;2.20;1.70;;;29.20;54.60;;;;;;5014957;28;20575;-74
2022/07/01 12:55:51;;;;;;;2.53;1.00;;;29.10;54.50;;;;;;5013475;28;20631;-74
2022/07/01 12:58:22;;;;;;;3.23;1.00;;;28.90;54.40;;;;;;5013566;28;20987;-74
2022/07/01 13:00:53;;;;;;;2.90;1.67;;;28.80;54.70;;;;;;5013903;28;21020;-74
2022/07/01 13:03:21;;;;;;;3.67;2.10;;;28.60;54.70;;;;;;5014758;28;20569;-74
2022/07/01 13:05:47;;;;;;;3.40;1.10;;;28.50;55.30;;;;;;5014945;28;20572;-74
2022/07/01 13:08:12;;;;;;;2.43;0.93;;;28.40;55.50;;;;;;5014681;28;20597;-74